Time;durP1;ratioP1;P1;durP2;ratioP2;P2;SDS_P1;SDS_P2;PMS_P1;PMS_P2;Temp;Humidity;BMP_temperature;BMP_pressure;BME280_temperature;BME280_humidity;BME280_pressure;Samples;Min_cycle;Max_cycle;Signal;HPM_P1;HPM_P2
2021/03/10 00:00:45;;;;;;;25.45;15.85;;;;;;;6.45;100.00;101386.88;4918079;29;20028;-73
2021/03/10 00:03:31;;;;;;;19.98;13.13;;;;;;;5.77;100.00;101390.41;4917354;29;20032;-73
2021/03/10 00:06:16;;;;;;;26.67;15.25;;;;;;;6.25;100.00;101383.19;4917873;29;20088;-73
2021/03/10 00:09:03;;;;;;;25.25;15.63;;;;;;;6.21;100.00;101378.81;4904124;29;20028;-73
2021/03/10 00:11:48;;;;;;;30.15;15.32;;;;;;;6.17;100.00;101377.03;4903584;29;20024;-74
2021/03/10 00:14:34;;;;;;;25.15;14.68;;;;;;;6.51;100.00;101376.50;4916702;29;20115;-74
2021/03/10 00:17:20;;;;;;;24.85;14.52;;;;;;;6.47;100.00;101373.88;4904099;29;20035;-73
2021/03/10 00:20:07;;;;;;;24.17;14.98;;;;;;;6.09;100.00;101376.09;4903935;29;20505;-73
2021/03/10 00:22:53;;;;;;;24.65;15.70;;;;;;;5.76;100.00;101380.88;4922236;29;20052;-72
2021/03/10 00:25:38;;;;;;;24.55;15.82;;;;;;;5.55;100.00;101375.41;4917508;29;20035;-73
2021/03/10 00:28:24;;;;;;;31.73;17.50;;;;;;;5.93;100.00;101378.50;4905167;29;20039;-73
2021/03/10 00:31:10;;;;;;;26.85;16.83;;;;;;;5.66;100.00;101379.00;4919597;29;20037;-73
2021/03/10 00:33:55;;;;;;;24.20;15.82;;;;;;;6.10;100.00;101374.38;4906780;29;20449;-73
2021/03/10 00:36:41;;;;;;;25.85;15.57;;;;;;;6.19;100.00;101371.88;4918756;29;20043;-73
2021/03/10 00:39:27;;;;;;;26.05;15.38;;;;;;;6.13;100.00;101371.78;4904337;29;20035;-73
2021/03/10 00:42:13;;;;;;;24.88;16.30;;;;;;;5.36;100.00;101365.59;4904075;29;20035;-73
2021/03/10 00:44:59;;;;;;;28.50;15.32;;;;;;;5.32;100.00;101362.06;4904363;29;20028;-73
2021/03/10 00:47:45;;;;;;;29.70;16.40;;;;;;;5.42;100.00;101357.03;4904443;29;20445;-73
2021/03/10 00:50:30;;;;;;;24.98;15.85;;;;;;;5.20;100.00;101353.25;4916352;29;20115;-73
2021/03/10 00:53:16;;;;;;;27.15;15.63;;;;;;;5.42;100.00;101344.03;4917559;29;20453;-72
2021/03/10 00:56:02;;;;;;;26.55;16.25;;;;;;;5.54;100.00;101331.19;4919495;29;20051;-73
2021/03/10 00:58:49;;;;;;;26.63;15.85;;;;;;;5.78;100.00;101326.28;4916723;29;20041;-73
2021/03/10 01:01:35;;;;;;;28.02;16.38;;;;;;;5.70;100.00;101318.38;4917338;29;20036;-74
2021/03/10 01:04:21;;;;;;;30.80;16.52;;;;;;;5.46;100.00;101318.09;4916942;29;20171;-73
2021/03/10 01:07:07;;;;;;;23.35;15.48;;;;;;;5.44;100.00;101325.88;4904057;29;20497;-74
2021/03/10 01:09:52;;;;;;;23.80;15.90;;;;;;;5.10;100.00;101315.00;4903621;29;20103;-73
2021/03/10 01:12:39;;;;;;;24.55;16.00;;;;;;;4.98;100.00;101317.44;4921380;29;20028;-72
2021/03/10 01:15:25;;;;;;;28.92;16.45;;;;;;;5.12;100.00;101302.94;4920837;29;20043;-72
2021/03/10 01:18:11;;;;;;;31.50;17.92;;;;;;;5.16;100.00;101299.53;4907403;29;20043;-73
2021/03/10 01:20:56;;;;;;;29.35;16.02;;;;;;;5.23;100.00;101297.00;4920827;29;20168;-73
2021/03/10 01:23:42;;;;;;;29.23;17.17;;;;;;;4.94;100.00;101300.06;4920881;29;20115;-73
2021/03/10 01:26:28;;;;;;;29.92;18.13;;;;;;;5.28;100.00;101300.53;4906545;29;20028;-74
2021/03/10 01:29:13;;;;;;;28.17;17.92;;;;;;;5.05;100.00;101304.56;4907539;29;20092;-74
2021/03/10 01:31:59;;;;;;;30.00;18.27;;;;;;;4.95;100.00;101299.22;4906662;29;20484;-73
2021/03/10 01:34:45;;;;;;;33.65;19.63;;;;;;;5.18;100.00;101301.28;4920396;29;20047;-72
2021/03/10 01:37:32;;;;;;;31.27;18.85;;;;;;;5.01;100.00;101295.00;4919887;29;20056;-73
2021/03/10 01:40:18;;;;;;;27.05;18.30;;;;;;;5.00;100.00;101295.84;4921559;29;20431;-73
2021/03/10 01:43:06;;;;;;;31.77;18.30;;;;;;;4.90;100.00;101286.16;4906207;29;20024;-73
2021/03/10 01:45:51;;;;;;;29.48;19.55;;;;;;;5.12;100.00;101290.84;4907367;29;20103;-72
2021/03/10 01:48:38;;;;;;;35.58;18.05;;;;;;;5.09;100.00;101283.00;4919857;29;20063;-73
2021/03/10 01:51:23;;;;;;;28.83;17.75;;;;;;;5.22;100.00;101277.09;4918877;29;20029;-73
2021/03/10 01:54:09;;;;;;;27.35;19.15;;;;;;;5.13;100.00;101266.59;4920876;29;20020;-73
2021/03/10 01:56:55;;;;;;;30.27;18.38;;;;;;;4.75;100.00;101261.72;4918978;29;20043;-72
2021/03/10 01:59:41;;;;;;;32.38;19.10;;;;;;;5.01;100.00;101258.66;4919440;29;20060;-73
2021/03/10 02:02:27;;;;;;;33.03;19.35;;;;;;;4.98;100.00;101257.72;4905901;29;20120;-73
2021/03/10 02:05:19;;;;;;;30.83;18.75;;;;;;;4.70;100.00;101258.16;4919391;29;20076;-72
2021/03/10 02:08:29;;;;;;;35.30;20.52;;;;;;;5.14;100.00;101244.97;4906210;29;20473;-72
2021/03/10 02:11:24;;;;;;;37.35;21.20;;;;;;;4.79;100.00;101246.19;4920098;29;20040;-73
2021/03/10 02:14:36;;;;;;;36.83;20.88;;;;;;;4.55;100.00;101243.25;4918932;29;20428;-72
2021/03/10 02:17:26;;;;;;;39.78;21.30;;;;;;;4.53;100.00;101244.97;4919469;29;20075;-73
2021/03/10 02:20:27;;;;;;;36.83;21.33;;;;;;;4.61;100.00;101251.16;4918265;29;20056;-72
2021/03/10 02:23:47;;;;;;;40.25;23.67;;;;;;;5.01;100.00;101244.78;4905500;29;20052;-72
2021/03/10 02:26:53;;;;;;;38.05;23.67;;;;;;;4.80;100.00;101247.97;4905589;29;20032;-73
2021/03/10 02:29:39;;;;;;;37.40;22.52;;;;;;;4.61;100.00;101253.75;4891679;29;20080;-73
2021/03/10 02:32:25;;;;;;;40.17;25.33;;;;;;;4.54;100.00;101257.09;4905527;29;20143;-73
2021/03/10 02:35:11;;;;;;;41.85;25.40;;;;;;;4.73;100.00;101261.72;4907564;29;20455;-73
2021/03/10 02:38:01;;;;;;;43.67;25.77;;;;;;;4.63;100.00;101261.53;4917936;29;20046;-74
2021/03/10 02:40:48;;;;;;;38.67;24.15;;;;;;;4.34;100.00;101253.31;4918929;29;20477;-73
2021/03/10 02:43:35;;;;;;;38.30;24.90;;;;;;;4.57;100.00;101262.31;4905163;29;20127;-74
2021/03/10 02:46:20;;;;;;;42.78;25.77;;;;;;;4.53;100.00;101257.06;4918645;29;20073;-74
2021/03/10 02:49:07;;;;;;;40.63;25.05;;;;;;;4.35;100.00;101252.44;4918714;29;20059;-73
2021/03/10 02:51:55;;;;;;;40.20;25.20;;;;;;;4.35;100.00;101257.63;4917828;29;20079;-73
2021/03/10 02:54:42;;;;;;;44.15;24.77;;;;;;;4.42;100.00;101256.88;4919601;29;20106;-74
2021/03/10 02:57:28;;;;;;;37.90;24.77;;;;;;;4.33;100.00;101246.38;4918695;29;20032;-74
2021/03/10 03:00:20;;;;;;;42.85;25.20;;;;;;;4.23;100.00;101243.63;4905197;29;20339;-74
2021/03/10 03:03:07;;;;;;;48.72;28.33;;;;;;;4.43;100.00;101243.06;4917990;29;20028;-74
2021/03/10 03:05:52;;;;;;;41.80;26.15;;;;;;;4.49;100.00;101232.78;4905487;29;20468;-74
2021/03/10 03:08:38;;;;;;;45.47;27.33;;;;;;;4.34;100.00;101242.94;4904255;29;20032;-73
2021/03/10 03:11:25;;;;;;;46.38;28.35;;;;;;;4.58;100.00;101243.31;4917821;29;20445;-74
2021/03/10 03:14:11;;;;;;;49.97;27.75;;;;;;;4.36;100.00;101240.38;4917588;29;20040;-75
2021/03/10 03:16:57;;;;;;;49.15;29.88;;;;;;;4.48;100.00;101225.88;4905574;29;20570;-74
2021/03/10 03:19:44;;;;;;;50.30;29.73;;;;;;;4.70;100.00;101227.91;4918756;29;20039;-74
2021/03/10 03:22:30;;;;;;;42.42;27.52;;;;;;;4.47;100.00;101231.88;4904817;29;20063;-75
2021/03/10 03:25:21;;;;;;;39.28;25.65;;;;;;;4.80;100.00;101231.50;4917656;29;20032;-75
2021/03/10 03:28:11;;;;;;;42.10;27.38;;;;;;;4.74;100.00;101226.22;4905049;29;20031;-75
2021/03/10 03:30:57;;;;;;;48.90;27.45;;;;;;;4.85;100.00;101230.72;4917630;29;20043;-75
2021/03/10 03:33:44;;;;;;;43.72;26.55;;;;;;;5.10;100.00;101224.13;4917393;29;20094;-75
2021/03/10 03:36:31;;;;;;;49.08;30.02;;;;;;;5.46;100.00;101218.50;4905150;29;20024;-75
2021/03/10 03:39:17;;;;;;;44.15;27.60;;;;;;;5.22;100.00;101219.06;4904572;29;20042;-75
2021/03/10 03:42:04;;;;;;;41.70;28.23;;;;;;;5.19;100.00;101221.66;4905564;29;20115;-75
2021/03/10 03:44:50;;;;;;;46.03;28.27;;;;;;;5.11;100.00;101220.69;4917682;29;20028;-75
2021/03/10 03:47:36;;;;;;;43.40;26.85;;;;;;;5.11;100.00;101223.28;4904932;29;20032;-75
2021/03/10 03:50:24;;;;;;;46.03;29.63;;;;;;;5.42;100.00;101222.78;4904737;29;20039;-75
2021/03/10 03:53:12;;;;;;;46.72;31.30;;;;;;;5.82;100.00;101216.31;4918937;29;20064;-74
2021/03/10 03:55:58;;;;;;;49.88;30.88;;;;;;;5.98;100.00;101221.66;4919408;29;20501;-76
2021/03/10 03:58:44;;;;;;;43.65;28.25;;;;;;;5.84;100.00;101212.88;4918940;29;20039;-75
2021/03/10 04:01:30;;;;;;;43.30;27.98;;;;;;;5.84;100.00;101206.78;4918264;29;20107;-76
2021/03/10 04:04:15;;;;;;;40.42;26.58;;;;;;;5.79;100.00;101198.03;4917533;29;20020;-75
2021/03/10 04:07:01;;;;;;;35.15;23.40;;;;;;;5.84;100.00;101188.59;4923817;29;20032;-75
2021/03/10 04:09:47;;;;;;;30.20;20.90;;;;;;;5.58;100.00;101190.03;4924655;29;20051;-74
2021/03/10 04:12:33;;;;;;;33.00;21.33;;;;;;;5.99;100.00;101188.72;4910680;29;20453;-74
2021/03/10 04:15:20;;;;;;;31.63;21.15;;;;;;;5.79;100.00;101190.25;4907137;29;20060;-74
2021/03/10 04:18:05;;;;;;;28.40;20.48;;;;;;;5.84;100.00;101180.78;4923328;29;20032;-74
2021/03/10 04:20:51;;;;;;;26.83;18.75;;;;;;;5.83;100.00;101179.06;4920292;29;20402;-75
2021/03/10 04:23:37;;;;;;;22.80;16.10;;;;;;;5.72;100.00;101183.25;4918530;29;20056;-75
2021/03/10 04:26:24;;;;;;;22.85;15.98;;;;;;;5.46;100.00;101177.78;4904989;29;20429;-75
2021/03/10 04:29:10;;;;;;;21.52;15.65;;;;;;;5.44;100.00;101169.13;4905178;29;20043;-74
2021/03/10 04:31:56;;;;;;;21.10;15.70;;;;;;;5.53;100.00;101163.13;4917267;29;20028;-75
2021/03/10 04:34:41;;;;;;;21.13;15.25;;;;;;;5.38;100.00;101163.84;4918250;29;20028;-75
2021/03/10 04:37:27;;;;;;;23.17;16.23;;;;;;;5.41;100.00;101163.88;4916916;29;20362;-74
2021/03/10 04:40:14;;;;;;;21.80;15.77;;;;;;;5.44;100.00;101159.56;4904180;29;20036;-75
2021/03/10 04:43:00;;;;;;;21.08;15.88;;;;;;;5.40;100.00;101163.00;4917325;29;20133;-74
2021/03/10 04:45:45;;;;;;;23.92;16.92;;;;;;;5.76;100.00;101159.91;4906232;29;20028;-74
2021/03/10 04:48:31;;;;;;;23.13;16.77;;;;;;;5.83;100.00;101150.44;4907900;29;20032;-74
2021/03/10 04:51:17;;;;;;;23.98;17.23;;;;;;;6.03;100.00;101154.09;4920241;29;20047;-74
2021/03/10 04:54:03;;;;;;;21.65;15.90;;;;;;;5.48;100.00;101153.53;4907357;29;20219;-74
2021/03/10 04:56:49;;;;;;;24.15;17.42;;;;;;;5.71;100.00;101150.31;4920007;29;20389;-75
2021/03/10 04:59:34;;;;;;;28.40;19.67;;;;;;;5.68;100.00;101148.56;4907670;29;20084;-74
2021/03/10 05:02:20;;;;;;;26.73;18.30;;;;;;;5.46;100.00;101150.94;4906872;29;20020;-74
2021/03/10 05:05:07;;;;;;;25.85;18.30;;;;;;;5.53;100.00;101147.53;4920457;29;20095;-74
2021/03/10 05:07:53;;;;;;;22.48;15.88;;;;;;;5.39;100.00;101142.22;4920882;29;20457;-74
2021/03/10 05:10:39;;;;;;;22.73;15.73;;;;;;;5.34;100.00;101147.34;4907661;29;20027;-75
2021/03/10 05:13:24;;;;;;;20.15;14.98;;;;;;;5.43;100.00;101149.19;4906990;29;20036;-74
2021/03/10 05:16:10;;;;;;;23.27;15.55;;;;;;;5.33;100.00;101150.81;4920384;29;20032;-74
2021/03/10 05:18:56;;;;;;;19.92;15.07;;;;;;;5.34;100.00;101147.34;4919891;29;20457;-75
2021/03/10 05:21:42;;;;;;;21.85;15.77;;;;;;;5.38;100.00;101154.31;4919526;29;20052;-74
2021/03/10 05:24:27;;;;;;;22.23;16.83;;;;;;;5.43;100.00;101149.19;4920193;29;20032;-74
2021/03/10 05:27:14;;;;;;;22.08;15.48;;;;;;;5.42;100.00;101144.81;4919582;29;20024;-75
2021/03/10 05:30:00;;;;;;;19.27;14.95;;;;;;;5.29;100.00;101138.66;4921341;29;20055;-74
2021/03/10 05:32:46;;;;;;;20.27;14.82;;;;;;;5.16;100.00;101141.94;4919304;29;20088;-74
2021/03/10 05:35:32;;;;;;;21.35;15.63;;;;;;;5.14;100.00;101130.69;4908829;29;20043;-73
2021/03/10 05:38:17;;;;;;;28.15;18.75;;;;;;;5.31;100.00;101136.94;4921945;29;20024;-74
2021/03/10 05:41:03;;;;;;;39.60;23.35;;;;;;;5.22;100.00;101143.75;4921348;29;20099;-74
2021/03/10 05:43:50;;;;;;;32.28;21.48;;;;;;;5.33;100.00;101145.63;4906308;29;20091;-74
2021/03/10 05:46:36;;;;;;;25.75;18.48;;;;;;;5.28;100.00;101136.88;4919773;29;20028;-75
2021/03/10 05:49:22;;;;;;;28.08;19.75;;;;;;;5.39;100.00;101155.22;4919279;29;20449;-74
2021/03/10 05:52:08;;;;;;;24.80;18.15;;;;;;;5.38;100.00;101150.00;4920109;29;20087;-75
2021/03/10 05:54:55;;;;;;;25.20;18.35;;;;;;;5.47;100.00;101147.47;4919517;29;20099;-75
2021/03/10 05:57:45;;;;;;;26.42;19.13;;;;;;;5.31;100.00;101138.66;4906297;29;20028;-74
2021/03/10 06:00:31;;;;;;;25.13;18.52;;;;;;;5.62;100.00;101147.63;4921737;29;20059;-74
2021/03/10 06:03:17;;;;;;;27.35;20.60;;;;;;;5.40;100.00;101150.00;4919280;29;20206;-74
2021/03/10 06:06:04;;;;;;;30.67;21.92;;;;;;;5.30;100.00;101142.09;4906516;29;20080;-76
2021/03/10 06:08:50;;;;;;;31.38;22.80;;;;;;;5.36;100.00;101147.38;4918563;29;20063;-75
2021/03/10 06:11:36;;;;;;;26.55;19.63;;;;;;;5.16;100.00;101147.13;4919674;29;20032;-73
2021/03/10 06:14:23;;;;;;;26.83;19.40;;;;;;;5.21;100.00;101157.59;4919413;29;20373;-75
2021/03/10 06:17:10;;;;;;;29.67;20.77;;;;;;;5.42;100.00;101156.97;4918874;29;20043;-74
2021/03/10 06:19:56;;;;;;;29.02;20.70;;;;;;;5.35;100.00;101161.22;4918604;29;20042;-74
2021/03/10 06:22:41;;;;;;;32.78;22.38;;;;;;;5.35;100.00;101166.44;4918544;29;20039;-75
2021/03/10 06:25:37;;;;;;;32.83;22.48;;;;;;;5.36;100.00;101162.97;4919558;29;20032;-74
2021/03/10 06:28:43;;;;;;;29.20;21.63;;;;;;;5.33;100.00;101163.81;4919745;29;20119;-74
2021/03/10 06:31:34;;;;;;;29.17;21.83;;;;;;;5.25;100.00;101168.03;4905525;29;20414;-74
2021/03/10 06:34:20;;;;;;;33.40;22.33;;;;;;;5.39;100.00;101171.66;4905057;29;20501;-75
2021/03/10 06:37:06;;;;;;;29.08;21.13;;;;;;;5.23;100.00;101168.88;4918607;29;20044;-73
2021/03/10 06:39:52;;;;;;;29.25;20.80;;;;;;;5.41;100.00;101171.66;4918298;29;20042;-75
2021/03/10 06:42:38;;;;;;;30.75;21.27;;;;;;;5.26;100.00;101174.09;4918089;29;20434;-74
2021/03/10 06:45:32;;;;;;;30.52;21.70;;;;;;;5.16;100.00;101177.47;4905161;29;20046;-74
2021/03/10 06:48:19;;;;;;;30.55;21.15;;;;;;;5.22;100.00;101178.41;4918254;29;20032;-75
2021/03/10 06:51:13;;;;;;;30.50;20.98;;;;;;;4.97;100.00;101167.69;4917115;29;20410;-74
2021/03/10 06:53:59;;;;;;;32.35;23.35;;;;;;;5.11;100.00;101179.13;4906231;29;20032;-74
2021/03/10 06:56:45;;;;;;;34.53;23.00;;;;;;;5.11;100.00;101174.78;4921272;29;20056;-75
2021/03/10 06:59:47;;;;;;;34.72;24.38;;;;;;;5.14;100.00;101185.22;4906302;29;20111;-75
2021/03/10 07:02:33;;;;;;;34.40;23.25;;;;;;;5.01;100.00;101177.28;4906512;29;20020;-76
2021/03/10 07:05:19;;;;;;;34.03;24.10;;;;;;;5.29;100.00;101177.63;4920681;29;20369;-74
2021/03/10 07:08:05;;;;;;;35.95;24.67;;;;;;;4.82;100.00;101178.75;4917064;29;20039;-74
2021/03/10 07:10:52;;;;;;;39.17;26.42;;;;;;;5.01;100.00;101185.94;4918375;29;20025;-74
2021/03/10 07:13:38;;;;;;;39.67;26.98;;;;;;;4.79;100.00;101178.72;4918536;29;20024;-77
2021/03/10 07:16:42;;;;;;;39.83;27.05;;;;;;;5.02;100.00;101182.47;4906392;29;20028;-75
2021/03/10 07:19:48;;;;;;;39.10;25.70;;;;;;;4.92;100.00;101182.34;4922696;29;20115;-82
2021/03/10 07:22:39;;;;;;;38.22;25.00;;;;;;;4.82;100.00;101183.06;4919258;29;20131;-76
2021/03/10 07:25:32;;;;;;;41.40;26.65;;;;;;;4.73;100.00;101176.06;4917449;29;20032;-74
2021/03/10 07:28:31;;;;;;;41.85;27.23;;;;;;;4.84;100.00;101178.78;4914275;29;20051;-80
2021/03/10 07:31:22;;;;;;;37.67;25.10;;;;;;;4.71;100.00;101179.50;4905478;29;20103;-75
2021/03/10 07:34:08;;;;;;;41.92;26.05;;;;;;;4.75;100.00;101168.28;4918224;29;20032;-75
2021/03/10 07:36:54;;;;;;;41.85;27.20;;;;;;;4.81;100.00;101179.63;4917051;29;20029;-74
2021/03/10 07:39:41;;;;;;;33.53;23.65;;;;;;;4.65;100.00;101169.00;4917959;29;20024;-75
2021/03/10 07:42:26;;;;;;;35.00;25.05;;;;;;;4.90;100.00;101169.34;4918727;29;20035;-77
2021/03/10 07:45:13;;;;;;;47.58;29.88;;;;;;;4.95;100.00;101170.28;4917590;29;20128;-76
2021/03/10 07:47:59;;;;;;;40.08;27.20;;;;;;;4.85;100.00;101162.34;4920318;29;20115;-74
2021/03/10 07:50:46;;;;;;;33.33;23.15;;;;;;;4.63;100.00;101156.00;4922393;29;20111;-74
2021/03/10 07:53:39;;;;;;;30.83;20.88;;;;;;;4.79;100.00;101159.69;4924356;29;20043;-75
2021/03/10 07:56:27;;;;;;;29.35;18.65;;;;;;;4.89;100.00;101162.44;4918921;29;20140;-77
2021/03/10 07:59:24;;;;;;;26.30;18.70;;;;;;;4.58;100.00;101154.19;4926559;29;20065;-77
2021/03/10 08:02:09;;;;;;;29.73;20.10;;;;;;;5.02;100.00;101155.63;4922044;29;20028;-77
2021/03/10 08:04:59;;;;;;;26.23;18.08;;;;;;;4.67;100.00;101144.81;4908509;29;20028;-79
2021/03/10 08:07:45;;;;;;;21.95;16.70;;;;;;;4.47;100.00;101150.63;4917428;29;20035;-75
2021/03/10 08:10:31;;;;;;;28.58;18.63;;;;;;;4.59;100.00;101150.78;4905477;29;20430;-75
2021/03/10 08:13:17;;;;;;;21.90;15.80;;;;;;;4.52;100.00;101152.41;4917407;29;20087;-75
2021/03/10 08:16:05;;;;;;;21.90;15.65;;;;;;;4.28;100.00;101152.06;4917119;29;20425;-76
2021/03/10 08:18:51;;;;;;;27.52;19.77;;;;;;;4.48;100.00;101154.94;4904644;29;20123;-76
2021/03/10 08:21:48;;;;;;;24.35;16.38;;;;;;;4.48;100.00;101147.16;4921498;29;20048;-76
2021/03/10 08:24:35;;;;;;;23.20;15.98;;;;;;;4.40;100.00;101152.25;4921226;29;20039;-76
2021/03/10 08:27:38;;;;;;;22.30;16.58;;;;;;;4.60;100.00;101145.63;4921410;29;20043;-77
2021/03/10 08:30:24;;;;;;;23.58;17.23;;;;;;;4.83;100.00;101144.16;4920886;29;20114;-75
2021/03/10 08:33:12;;;;;;;26.35;16.58;;;;;;;4.80;100.00;101140.66;4921671;29;20178;-75
2021/03/10 08:35:59;;;;;;;34.20;20.95;;;;;;;4.85;100.00;101141.59;4921958;29;20063;-75
2021/03/10 08:38:45;;;;;;;25.08;17.42;;;;;;;4.72;100.00;101138.00;4919812;29;20107;-76
2021/03/10 08:41:30;;;;;;;29.08;19.67;;;;;;;4.99;100.00;101140.03;4908519;29;20114;-75
2021/03/10 08:44:21;;;;;;;23.40;16.80;;;;;;;4.60;100.00;101134.34;4907569;29;20043;-76
2021/03/10 08:47:12;;;;;;;23.05;15.13;;;;;;;4.44;100.00;101133.28;4921922;29;20032;-75
2021/03/10 08:49:59;;;;;;;23.48;16.67;;;;;;;4.36;100.00;101141.81;4920010;29;20039;-74
2021/03/10 08:52:46;;;;;;;21.80;15.35;;;;;;;4.44;100.00;101146.25;4908564;29;20130;-75
2021/03/10 08:55:32;;;;;;;21.02;15.50;;;;;;;4.58;100.00;101142.09;4925642;29;20036;-75
2021/03/10 08:58:19;;;;;;;24.77;16.30;;;;;;;4.78;100.00;101150.13;4920399;29;20024;-76
2021/03/10 09:01:13;;;;;;;25.02;16.30;;;;;;;4.60;100.00;101145.63;4921557;29;20493;-76
2021/03/10 09:04:06;;;;;;;26.73;17.25;;;;;;;4.69;100.00;101137.06;4908240;29;20024;-78
2021/03/10 09:06:54;;;;;;;23.90;16.50;;;;;;;5.00;100.00;101140.06;4908016;29;20091;-75
2021/03/10 09:09:40;;;;;;;27.73;18.98;;;;;;;4.75;100.00;101132.81;4906073;29;20028;-75
2021/03/10 09:12:29;;;;;;;26.95;17.20;;;;;;;4.46;100.00;101134.16;4920036;29;20028;-76
2021/03/10 09:16:06;;;;;;;17.48;13.27;;;;;;;4.26;100.00;101135.59;4906919;29;20339;-76
2021/03/10 09:18:59;;;;;;;19.88;13.68;;;;;;;4.38;100.00;101135.78;4905236;29;20039;-75
2021/03/10 09:21:45;;;;;;;17.20;12.73;;;;;;;4.46;100.00;101147.13;4906713;29;20036;-75
2021/03/10 09:24:31;;;;;;;25.27;15.73;;;;;;;3.93;100.00;101145.47;4920070;29;20024;-75
2021/03/10 09:27:28;;;;;;;35.45;20.05;;;;;;;4.22;100.00;101143.34;4906630;29;20035;-75
2021/03/10 09:30:26;;;;;;;33.47;20.67;;;;;;;4.77;100.00;101148.41;4919685;29;20111;-74
2021/03/10 09:33:25;;;;;;;25.15;15.55;;;;;;;4.88;100.00;101145.13;4935352;23;20405;-77
2021/03/10 09:36:22;;;;;;;23.40;15.63;;;;;;;4.45;100.00;101147.09;4907095;29;20031;-78
2021/03/10 09:39:08;;;;;;;33.67;23.02;;;;;;;4.23;100.00;101151.13;4907720;29;20032;-78
2021/03/10 09:41:55;;;;;;;54.92;35.33;;;;;;;4.58;100.00;101143.81;4907895;29;20029;-75
2021/03/10 09:44:49;;;;;;;45.50;29.15;;;;;;;4.72;100.00;101148.38;4920530;29;20039;-76
2021/03/10 09:48:09;;;;;;;28.58;19.58;;;;;;;4.68;100.00;101145.69;4920562;29;20088;-78
2021/03/10 09:51:21;;;;;;;34.38;22.75;;;;;;;4.64;100.00;101137.03;4906103;29;20050;-76
2021/03/10 09:54:09;;;;;;;30.02;20.85;;;;;;;4.56;100.00;101138.66;4907698;29;20032;-75
2021/03/10 09:56:55;;;;;;;60.30;43.17;;;;;;;4.33;100.00;101139.16;4919894;29;20024;-75
2021/03/10 09:59:42;;;;;;;45.92;32.63;;;;;;;4.57;100.00;101136.91;4920066;29;20032;-76
2021/03/10 10:02:30;;;;;;;18.73;12.98;;;;;;;4.18;100.00;101142.41;4918212;29;20048;-76
2021/03/10 10:05:34;;;;;;;19.88;14.48;;;;;;;4.27;100.00;101141.69;4920339;29;20039;-76
2021/03/10 10:08:38;;;;;;;32.38;22.92;;;;;;;4.33;100.00;101142.63;4908806;29;20473;-76
2021/03/10 10:11:24;;;;;;;31.67;21.42;;;;;;;4.98;100.00;101139.16;4919054;29;20032;-75
2021/03/10 10:14:44;;;;;;;23.90;15.93;;;;;;;5.14;100.00;101135.88;4920133;29;20060;-79
2021/03/10 10:17:29;;;;;;;20.48;14.90;;;;;;;4.64;100.00;101130.94;4909501;29;20032;-76
2021/03/10 10:20:19;;;;;;;21.35;15.07;;;;;;;4.75;100.00;101131.97;4918570;29;20028;-76
2021/03/10 10:23:05;;;;;;;21.40;15.07;;;;;;;4.73;100.00;101134.53;4908868;29;20028;-76
2021/03/10 10:25:51;;;;;;;20.20;14.73;;;;;;;4.44;100.00;101129.81;4920413;29;20036;-75
2021/03/10 10:28:36;;;;;;;21.95;16.13;;;;;;;4.57;100.00;101126.53;4907263;29;20028;-76
2021/03/10 10:31:22;;;;;;;21.30;13.73;;;;;;;4.67;100.00;101123.22;4918972;29;20449;-77
2021/03/10 10:34:36;;;;;;;20.27;15.13;;;;;;;4.75;100.00;101127.63;4888761;29;20048;-76
2021/03/10 10:37:22;;;;;;;22.27;15.40;;;;;;;4.96;100.00;101120.13;4886940;29;20231;-76
2021/03/10 10:40:11;;;;;;;23.20;15.57;;;;;;;4.76;100.00;101121.59;4887946;29;20060;-76
2021/03/10 10:42:57;;;;;;;17.77;12.85;;;;;;;4.65;100.00;101124.91;4900641;29;20029;-76
2021/03/10 10:45:44;;;;;;;19.30;15.57;;;;;;;4.74;100.00;101120.69;4886314;29;20041;-76
2021/03/10 10:48:29;;;;;;;22.20;15.10;;;;;;;5.09;100.00;101123.69;4900384;29;20024;-77
2021/03/10 10:51:16;;;;;;;19.33;14.25;;;;;;;5.29;100.00;101117.00;4886415;29;20029;-75
2021/03/10 10:54:09;;;;;;;27.30;18.15;;;;;;;4.96;100.00;101117.53;4887431;29;20040;-77
2021/03/10 10:56:55;;;;;;;19.90;14.13;;;;;;;4.99;100.00;101114.06;4899171;29;20488;-76
2021/03/10 10:59:41;;;;;;;18.08;13.10;;;;;;;4.80;100.00;101102.63;4899757;29;20032;-76
2021/03/10 11:02:30;;;;;;;27.50;17.95;;;;;;;5.13;100.00;101104.69;4899542;29;20168;-75
2021/03/10 11:05:16;;;;;;;17.70;12.02;;;;;;;4.27;100.00;101095.84;4899809;29;20032;-76
2021/03/10 11:08:01;;;;;;;19.77;14.05;;;;;;;4.50;100.00;101096.16;4899221;29;20099;-76
2021/03/10 11:10:59;;;;;;;15.23;10.73;;;;;;;4.27;100.00;101089.81;4900697;29;20127;-77
2021/03/10 11:13:45;;;;;;;17.42;11.65;;;;;;;4.48;100.00;101078.00;4899311;29;20411;-76
2021/03/10 11:16:31;;;;;;;18.67;12.75;;;;;;;4.61;100.00;101079.88;4902239;29;20438;-76
2021/03/10 11:19:17;;;;;;;24.10;15.90;;;;;;;4.78;100.00;101072.28;4898970;29;20071;-76
2021/03/10 11:22:04;;;;;;;18.52;13.40;;;;;;;4.63;100.00;101065.19;4887440;29;20020;-74
2021/03/10 11:25:08;;;;;;;17.02;12.85;;;;;;;4.59;100.00;101071.19;4900030;29;20489;-76
2021/03/10 11:27:54;;;;;;;18.73;13.75;;;;;;;4.53;100.00;101062.47;4898569;29;20064;-75
2021/03/10 11:30:41;;;;;;;16.95;12.27;;;;;;;4.51;100.00;101059.84;4899231;29;20028;-76
2021/03/10 11:33:27;;;;;;;18.02;12.73;;;;;;;4.46;100.00;101052.91;4900607;29;20048;-75
2021/03/10 11:36:12;;;;;;;19.70;12.75;;;;;;;4.39;100.00;101053.66;4906139;29;20024;-74
2021/03/10 11:38:58;;;;;;;17.23;12.75;;;;;;;4.25;100.00;101044.81;4905390;29;20531;-76
2021/03/10 11:42:09;;;;;;;19.63;13.98;;;;;;;3.92;100.00;101047.84;4906749;29;20112;-76
2021/03/10 11:45:17;;;;;;;21.75;14.00;;;;;;;4.18;100.00;101046.47;4908014;29;20064;-78
2021/03/10 11:48:12;;;;;;;21.27;13.77;;;;;;;4.17;100.00;101039.53;4907609;29;20044;-75
2021/03/10 11:51:07;;;;;;;16.35;12.18;;;;;;;4.00;100.00;101038.44;4919447;29;20055;-76
2021/03/10 11:53:54;;;;;;;20.83;13.95;;;;;;;3.99;100.00;101034.09;4906556;29;20083;-77
2021/03/10 11:57:17;;;;;;;17.23;12.27;;;;;;;3.91;100.00;101034.84;4906142;29;20044;-77
2021/03/10 12:00:31;;;;;;;28.02;19.65;;;;;;;4.24;100.00;101031.00;4920439;29;20032;-77
2021/03/10 12:03:42;;;;;;;25.50;16.58;;;;;;;4.34;100.00;101029.41;4905306;29;20052;-77
2021/03/10 12:07:04;;;;;;;22.52;14.65;;;;;;;4.29;100.00;101025.84;4921013;29;20033;-76
2021/03/10 12:09:51;;;;;;;22.67;15.68;;;;;;;4.31;100.00;101022.41;4905968;29;20115;-76
2021/03/10 12:12:37;;;;;;;14.85;10.63;;;;;;;4.00;100.00;101028.09;4917427;29;20036;-75
2021/03/10 12:15:23;;;;;;;15.48;11.65;;;;;;;3.79;100.00;101017.41;4916828;29;20512;-76
2021/03/10 12:18:09;;;;;;;16.30;11.35;;;;;;;3.33;100.00;101025.31;4904746;29;20032;-76
2021/03/10 12:20:54;;;;;;;18.40;12.48;;;;;;;3.35;100.00;101028.81;4916576;29;20473;-76
2021/03/10 12:23:40;;;;;;;14.02;11.30;;;;;;;3.20;100.00;101020.78;4916828;29;20120;-76
2021/03/10 12:26:26;;;;;;;17.27;12.10;;;;;;;3.46;100.00;101026.41;4904028;29;20024;-76
2021/03/10 12:29:12;;;;;;;13.98;10.38;;;;;;;3.20;100.00;101028.56;4917603;29;20059;-76
2021/03/10 12:31:58;;;;;;;13.70;10.80;;;;;;;3.21;100.00;101027.69;4917038;29;20048;-76
2021/03/10 12:34:44;;;;;;;13.55;9.77;;;;;;;3.18;100.00;101019.88;4905425;29;20028;-76
2021/03/10 12:37:29;;;;;;;14.30;10.35;;;;;;;3.18;100.00;101014.69;4916485;29;20339;-78
2021/03/10 12:40:16;;;;;;;13.57;10.55;;;;;;;3.35;100.00;101021.06;4918388;29;20044;-77
2021/03/10 12:43:28;;;;;;;11.57;8.95;;;;;;;3.24;100.00;101025.19;4916967;29;20043;-77
2021/03/10 12:46:14;;;;;;;15.43;10.55;;;;;;;3.48;100.00;101024.69;4918029;29;20032;-76
2021/03/10 12:49:00;;;;;;;16.40;11.43;;;;;;;3.64;100.00;101017.19;4904823;29;20060;-76